createdAt,value
2024-01-08T00:00:41.802Z,50.43
2024-01-08T00:03:09.031Z,50.21
2024-01-08T00:05:40.692Z,50.52
2024-01-08T00:08:08.510Z,50.57
2024-01-08T00:10:39.469Z,50.44
2024-01-08T00:13:06.334Z,50.39
2024-01-08T00:15:33.573Z,50.48
2024-01-08T00:18:00.601Z,50.27
2024-01-08T00:20:27.625Z,50.36
2024-01-08T00:22:54.439Z,50.50
2024-01-08T00:25:23.182Z,50.54
2024-01-08T00:27:53.267Z,50.52
2024-01-08T00:30:20.470Z,50.29
2024-01-08T00:32:48.340Z,50.36
2024-01-08T00:35:15.760Z,50.57
2024-01-08T00:37:43.014Z,50.37
2024-01-08T00:40:11.119Z,50.34
2024-01-08T00:42:39.238Z,50.46
2024-01-08T00:45:07.005Z,50.46
2024-01-08T00:47:34.419Z,50.58
2024-01-08T00:50:02.766Z,50.61
2024-01-08T00:52:30.491Z,50.40
2024-01-08T00:55:02.973Z,50.34
2024-01-08T00:57:30.073Z,50.28
2024-01-08T00:59:56.753Z,50.51
2024-01-08T01:02:23.993Z,50.61
2024-01-08T01:04:51.131Z,50.58
2024-01-08T01:07:18.180Z,50.49
2024-01-08T01:09:45.016Z,50.46
2024-01-08T01:12:11.713Z,50.75
2024-01-08T01:14:38.463Z,50.58
2024-01-08T01:17:05.320Z,50.65
2024-01-08T01:19:32.049Z,50.51
2024-01-08T01:21:58.767Z,50.54
2024-01-08T01:24:25.794Z,50.63
2024-01-08T01:26:52.579Z,50.46
2024-01-08T01:29:19.321Z,50.68
2024-01-08T01:31:46.096Z,50.68
2024-01-08T01:34:13.705Z,50.32
2024-01-08T01:36:41.073Z,50.67
2024-01-08T01:39:08.208Z,50.69
2024-01-08T01:41:35.128Z,50.64
2024-01-08T01:44:02.019Z,50.81
2024-01-08T01:46:43.038Z,50.79
2024-01-08T01:49:20.184Z,50.60
2024-01-08T01:51:48.668Z,50.59
2024-01-08T01:54:17.499Z,50.74
2024-01-08T01:56:50.826Z,50.58
2024-01-08T01:59:19.185Z,50.57
2024-01-08T02:01:46.750Z,50.64
2024-01-08T02:04:18.388Z,50.57
2024-01-08T02:06:46.258Z,50.58
2024-01-08T02:09:17.638Z,50.50
2024-01-08T02:11:45.358Z,50.42
2024-01-08T02:14:13.827Z,50.48
2024-01-08T02:16:43.117Z,50.31
2024-01-08T02:19:10.453Z,50.45
2024-01-08T02:21:37.920Z,50.47
2024-01-08T02:24:05.834Z,50.53
2024-01-08T02:26:32.741Z,50.65
2024-01-08T02:28:59.596Z,50.37
2024-01-08T02:31:26.412Z,50.46
2024-01-08T02:33:53.162Z,50.47
2024-01-08T02:36:19.930Z,50.60
2024-01-08T02:38:47.164Z,50.72
2024-01-08T02:41:13.865Z,50.35
2024-01-08T02:43:40.698Z,50.46
2024-01-08T02:46:07.516Z,50.44
2024-01-08T02:48:34.333Z,50.55
2024-01-08T02:51:01.130Z,50.79
2024-01-08T02:53:28.005Z,50.42
2024-01-08T02:55:54.765Z,50.45
2024-01-08T02:58:21.581Z,50.16
2024-01-08T03:00:48.377Z,50.54
2024-01-08T03:03:15.209Z,50.52
2024-01-08T03:05:42.050Z,50.39
2024-01-08T03:08:08.862Z,50.59
2024-01-08T03:10:35.705Z,50.69
2024-01-08T03:13:02.510Z,50.94
2024-01-08T03:15:29.342Z,50.63
2024-01-08T03:17:56.095Z,50.71
2024-01-08T03:20:24.444Z,50.69
2024-01-08T03:22:53.246Z,50.50
2024-01-08T03:25:20.109Z,50.54
2024-01-08T03:27:46.889Z,50.51
2024-01-08T03:30:14.043Z,50.57
2024-01-08T03:32:41.031Z,50.51
2024-01-08T03:35:08.258Z,50.60
2024-01-08T03:37:35.618Z,50.50
2024-01-08T03:40:03.556Z,50.56
2024-01-08T03:42:30.415Z,50.49
2024-01-08T03:44:57.158Z,50.42
2024-01-08T03:47:24.029Z,50.48
2024-01-08T03:49:50.937Z,50.56
2024-01-08T03:52:17.993Z,50.52
2024-01-08T03:54:44.684Z,50.61
2024-01-08T03:57:11.479Z,50.68
2024-01-08T03:59:38.262Z,50.47
2024-01-08T04:02:05.357Z,50.34
2024-01-08T04:04:32.189Z,50.62
2024-01-08T04:06:59.044Z,50.43
2024-01-08T04:09:26.521Z,50.50
2024-01-08T04:11:53.525Z,50.61
2024-01-08T04:14:20.364Z,50.61
2024-01-08T04:16:47.076Z,50.78
2024-01-08T04:19:13.995Z,50.71
2024-01-08T04:21:40.813Z,50.58
2024-01-08T04:24:07.639Z,50.52
2024-01-08T04:26:34.481Z,50.51
2024-01-08T04:29:01.259Z,50.54
2024-01-08T04:31:29.866Z,50.61
2024-01-08T04:33:56.657Z,50.68
2024-01-08T04:36:23.539Z,50.49
2024-01-08T04:38:50.324Z,50.53
2024-01-08T04:41:21.217Z,50.56
2024-01-08T04:43:49.354Z,50.55
2024-01-08T04:46:16.085Z,50.43
2024-01-08T04:48:43.458Z,50.50
2024-01-08T04:51:21.054Z,50.88
2024-01-08T04:53:47.822Z,50.54
2024-01-08T04:56:25.220Z,50.68
2024-01-08T04:58:55.923Z,50.75
2024-01-08T05:01:23.595Z,50.90
2024-01-08T05:03:50.820Z,50.69
2024-01-08T05:06:17.987Z,50.99
2024-01-08T05:08:44.755Z,51.11
2024-01-08T05:11:12.324Z,50.83
2024-01-08T05:13:40.087Z,50.76
2024-01-08T05:16:07.652Z,50.86
2024-01-08T05:18:34.518Z,50.75
2024-01-08T05:21:01.349Z,50.71
2024-01-08T05:23:28.129Z,50.75
2024-01-08T05:25:54.998Z,50.80
2024-01-08T05:28:21.708Z,50.91
2024-01-08T05:30:48.497Z,50.64
2024-01-08T05:33:15.193Z,50.93
2024-01-08T05:35:42.402Z,50.96
2024-01-08T05:38:09.293Z,50.95
2024-01-08T05:40:36.038Z,50.98
2024-01-08T05:43:02.779Z,51.01
2024-01-08T05:45:29.609Z,50.99
2024-01-08T05:47:57.312Z,50.97
2024-01-08T05:50:27.010Z,51.08
2024-01-08T05:52:55.326Z,51.01
2024-01-08T05:55:23.133Z,51.01
2024-01-08T05:57:49.889Z,50.95
2024-01-08T06:00:17.629Z,51.00
2024-01-08T06:02:44.525Z,51.07
2024-01-08T06:05:15.645Z,51.29
2024-01-08T06:07:44.676Z,50.89
2024-01-08T06:10:11.540Z,51.18
2024-01-08T06:12:38.818Z,50.91
2024-01-08T06:15:06.675Z,51.22
2024-01-08T06:17:33.961Z,51.33
2024-01-08T06:20:00.937Z,50.84
2024-01-08T06:22:27.801Z,51.26
2024-01-08T06:24:54.545Z,51.06
2024-01-08T06:27:21.222Z,51.15
2024-01-08T06:29:48.005Z,51.14
2024-01-08T06:32:15.003Z,51.32
2024-01-08T06:34:41.856Z,51.18
2024-01-08T06:37:08.802Z,51.10
2024-01-08T06:39:35.547Z,51.16
2024-01-08T06:42:02.270Z,50.98
2024-01-08T06:44:29.095Z,50.95
2024-01-08T06:46:56.396Z,50.63
2024-01-08T06:49:23.310Z,51.13
2024-01-08T06:51:50.362Z,50.79
2024-01-08T06:54:17.509Z,51.01
2024-01-08T06:56:44.943Z,51.10
2024-01-08T06:59:12.132Z,51.04
2024-01-08T07:01:38.959Z,50.94
2024-01-08T07:04:05.867Z,51.10
2024-01-08T07:06:33.453Z,50.97
2024-01-08T07:09:00.409Z,50.96
2024-01-08T07:11:27.295Z,51.27
2024-01-08T07:13:54.250Z,51.14
2024-01-08T07:16:21.167Z,51.18
2024-01-08T07:18:48.200Z,51.21
2024-01-08T07:21:18.068Z,50.93
2024-01-08T07:23:46.483Z,51.20
2024-01-08T07:26:16.204Z,50.99
2024-01-08T07:28:47.139Z,51.13
2024-01-08T07:31:16.490Z,51.08
2024-01-08T07:33:43.538Z,51.09
2024-01-08T07:36:11.087Z,51.11
2024-01-08T07:38:38.370Z,50.81
2024-01-08T07:41:08.867Z,51.00
2024-01-08T07:43:39.073Z,51.05
2024-01-08T07:46:06.344Z,50.87
2024-01-08T07:48:33.548Z,50.97
2024-01-08T07:51:01.850Z,50.85
2024-01-08T07:53:28.784Z,50.93
2024-01-08T07:55:55.706Z,50.91
2024-01-08T07:58:28.471Z,51.15
2024-01-08T08:01:02.902Z,51.29
2024-01-08T08:03:30.272Z,51.36
2024-01-08T08:05:59.526Z,51.58
2024-01-08T08:08:27.244Z,51.75
2024-01-08T08:10:54.171Z,52.05
2024-01-08T08:13:21.003Z,52.19
2024-01-08T08:15:47.712Z,52.29
2024-01-08T08:18:14.806Z,52.18
2024-01-08T08:20:41.885Z,52.34
2024-01-08T08:23:08.780Z,52.31
2024-01-08T08:25:35.697Z,52.40
2024-01-08T08:28:03.463Z,52.55
2024-01-08T08:30:30.864Z,52.60
2024-01-08T08:33:00.266Z,52.91
2024-01-08T08:35:27.686Z,52.63
2024-01-08T08:37:55.170Z,53.00
2024-01-08T08:40:23.823Z,53.07
2024-01-08T08:42:51.189Z,52.96
2024-01-08T08:45:19.278Z,52.70
2024-01-08T08:47:46.814Z,53.04
2024-01-08T08:50:14.178Z,53.11
2024-01-08T08:52:41.129Z,52.86
2024-01-08T08:55:11.279Z,52.94
2024-01-08T08:57:38.908Z,53.00
2024-01-08T09:00:12.013Z,53.03
2024-01-08T09:02:40.144Z,52.81
2024-01-08T09:07:42.292Z,52.83
2024-01-08T09:10:09.439Z,53.03
2024-01-08T09:12:36.256Z,53.07
2024-01-08T09:15:03.931Z,52.79
2024-01-08T09:17:33.067Z,52.59
2024-01-08T09:19:59.947Z,52.59
2024-01-08T09:22:26.741Z,52.11
2024-01-08T09:24:53.697Z,52.02
2024-01-08T09:27:20.889Z,51.93
2024-01-08T09:29:47.778Z,51.42
2024-01-08T09:32:14.785Z,51.49
2024-01-08T09:34:42.239Z,51.50
2024-01-08T09:37:09.162Z,51.47
2024-01-08T09:39:36.782Z,51.33
2024-01-08T09:42:07.038Z,51.27
2024-01-08T09:44:36.887Z,50.95
2024-01-08T09:47:05.382Z,50.81
2024-01-08T09:49:34.702Z,50.54
2024-01-08T09:52:06.597Z,50.51
2024-01-08T09:54:34.969Z,50.25
2024-01-08T09:57:01.714Z,50.12
2024-01-08T09:59:29.336Z,50.37
2024-01-08T10:01:57.877Z,49.89
2024-01-08T10:04:27.853Z,50.11
2024-01-08T10:07:09.237Z,50.01
2024-01-08T10:09:36.932Z,49.77
2024-01-08T10:12:04.371Z,49.46
2024-01-08T10:14:31.751Z,49.32
2024-01-08T10:17:02.647Z,49.72
2024-01-08T10:19:30.873Z,49.44
2024-01-08T10:22:10.097Z,49.26
2024-01-08T10:24:39.666Z,49.20
2024-01-08T10:27:09.249Z,49.29
2024-01-08T10:29:42.260Z,49.22
2024-01-08T10:32:12.008Z,49.11
2024-01-08T10:34:40.139Z,49.06
2024-01-08T10:37:07.367Z,48.71
2024-01-08T10:39:44.572Z,48.58
2024-01-08T10:42:18.229Z,48.57
2024-01-08T10:44:45.141Z,48.30
2024-01-08T10:47:25.545Z,48.77
2024-01-08T10:49:58.268Z,48.64
2024-01-08T10:52:35.234Z,48.63
2024-01-08T10:55:04.066Z,48.38
2024-01-08T10:57:57.046Z,48.13
2024-01-08T11:00:24.381Z,48.39
2024-01-08T11:02:52.806Z,48.49
2024-01-08T11:05:22.941Z,48.47
2024-01-08T11:07:51.846Z,48.66
2024-01-08T11:10:23.148Z,48.34
2024-01-08T11:12:55.665Z,48.14
2024-01-08T11:15:27.358Z,48.23
2024-01-08T11:17:55.697Z,48.25
2024-01-08T11:20:42.629Z,48.22
2024-01-08T11:23:41.053Z,48.41
2024-01-08T11:26:15.344Z,48.35
2024-01-08T11:28:42.816Z,48.17
2024-01-08T11:31:52.517Z,48.15
2024-01-08T11:34:38.713Z,48.00
2024-01-08T11:37:14.428Z,48.21
2024-01-08T11:39:42.550Z,48.14
2024-01-08T11:42:10.173Z,47.80
2024-01-08T11:44:37.271Z,47.81
2024-01-08T11:47:04.956Z,47.74
2024-01-08T11:49:32.039Z,47.71
2024-01-08T11:52:02.065Z,47.64
2024-01-08T11:54:29.130Z,47.69
2024-01-08T11:56:56.765Z,47.62
2024-01-08T11:59:34.621Z,47.37
2024-01-08T12:02:30.920Z,47.78
2024-01-08T12:04:59.538Z,47.66
2024-01-08T12:07:28.290Z,47.70
2024-01-08T12:09:55.932Z,47.81
2024-01-08T12:12:26.473Z,47.58
2024-01-08T12:14:53.839Z,47.70
2024-01-08T12:17:21.082Z,47.45
2024-01-08T12:19:55.708Z,46.69
2024-01-08T12:22:25.077Z,46.42
2024-01-08T12:24:53.430Z,46.32
2024-01-08T12:27:24.409Z,46.13
2024-01-08T12:29:51.775Z,46.47
2024-01-08T12:32:21.175Z,46.55
2024-01-08T12:34:48.618Z,46.38
2024-01-08T12:37:17.691Z,46.58
2024-01-08T12:39:45.550Z,46.67
2024-01-08T12:42:16.244Z,46.52
2024-01-08T12:44:44.952Z,46.46
2024-01-08T12:47:12.420Z,46.32
2024-01-08T12:49:39.729Z,46.51
2024-01-08T12:52:10.225Z,46.28
2024-01-08T12:54:40.642Z,46.82
2024-01-08T12:57:08.007Z,46.87
2024-01-08T12:59:36.162Z,46.83
2024-01-08T13:02:04.464Z,46.71
2024-01-08T13:04:31.536Z,46.78
2024-01-08T13:06:58.570Z,46.48
2024-01-08T13:09:25.530Z,46.55
2024-01-08T13:11:52.717Z,46.39
2024-01-08T13:14:20.270Z,46.21
2024-01-08T13:16:49.334Z,46.35
2024-01-08T13:19:16.426Z,46.50
2024-01-08T13:21:43.678Z,46.47
2024-01-08T13:24:11.902Z,46.57
2024-01-08T13:26:39.968Z,46.60
2024-01-08T13:29:11.323Z,46.54
2024-01-08T13:31:40.199Z,46.60
2024-01-08T13:34:08.092Z,46.41
2024-01-08T13:36:36.098Z,46.21
2024-01-08T13:39:02.993Z,46.13
2024-01-08T13:41:31.954Z,46.36
2024-01-08T13:43:58.890Z,46.27
2024-01-08T13:46:26.076Z,46.39
2024-01-08T13:48:53.056Z,46.14
2024-01-08T13:51:20.114Z,45.89
2024-01-08T13:53:46.785Z,46.30
2024-01-08T13:56:13.561Z,46.32
2024-01-08T13:58:40.237Z,45.94
2024-01-08T14:01:07.726Z,45.78
2024-01-08T14:03:34.586Z,45.13
2024-01-08T14:06:01.500Z,45.09
2024-01-08T14:08:28.597Z,44.71
2024-01-08T14:10:55.482Z,44.76
2024-01-08T14:13:22.217Z,44.41
2024-01-08T14:15:48.938Z,44.38
2024-01-08T14:18:15.725Z,44.38
2024-01-08T14:20:42.535Z,44.33
2024-01-08T14:23:09.644Z,44.08
2024-01-08T14:25:36.543Z,44.13
2024-01-08T14:28:03.501Z,43.95
2024-01-08T14:30:30.267Z,43.66
2024-01-08T14:32:58.004Z,43.72
2024-01-08T14:35:24.989Z,43.63
2024-01-08T14:37:51.739Z,43.57
2024-01-08T14:40:28.094Z,43.42
2024-01-08T14:42:56.811Z,43.40
2024-01-08T14:45:23.736Z,43.18
2024-01-08T14:47:50.753Z,43.18
2024-01-08T14:50:20.272Z,43.22
2024-01-08T14:52:49.332Z,43.10
2024-01-08T14:55:16.167Z,43.44
2024-01-08T14:57:42.912Z,43.26
2024-01-08T15:00:11.460Z,43.30
2024-01-08T15:02:40.365Z,43.01
2024-01-08T15:05:08.079Z,42.94
2024-01-08T15:07:34.877Z,43.02
2024-01-08T15:10:02.528Z,42.89
2024-01-08T15:12:31.079Z,42.74
2024-01-08T15:14:57.858Z,42.58
2024-01-08T15:17:24.845Z,42.59
2024-01-08T15:19:52.632Z,42.69
2024-01-08T15:22:19.945Z,42.39
2024-01-08T15:24:46.777Z,42.58
2024-01-08T15:27:13.696Z,42.41
2024-01-08T15:29:40.962Z,42.30
2024-01-08T15:32:09.038Z,42.38
2024-01-08T15:34:35.909Z,42.16
2024-01-08T15:37:02.916Z,42.52
2024-01-08T15:39:29.694Z,42.34
2024-01-08T15:41:56.490Z,42.31
2024-01-08T15:44:23.257Z,41.94
2024-01-08T15:46:50.052Z,42.20
2024-01-08T15:49:16.833Z,42.24
2024-01-08T15:51:43.642Z,42.40
2024-01-08T15:54:10.352Z,42.22
2024-01-08T15:56:37.372Z,42.11
2024-01-08T15:59:04.201Z,41.95
2024-01-08T16:01:31.828Z,42.28
2024-01-08T16:03:58.821Z,42.42
2024-01-08T16:06:25.720Z,42.32
2024-01-08T16:08:52.723Z,42.10
2024-01-08T16:11:19.622Z,42.07
2024-01-08T16:13:46.737Z,42.07
2024-01-08T16:16:13.575Z,42.21
2024-01-08T16:18:41.807Z,42.27
2024-01-08T16:21:08.905Z,42.17
2024-01-08T16:23:36.309Z,42.21
2024-01-08T16:26:03.549Z,42.06
2024-01-08T16:28:30.335Z,42.22
2024-01-08T16:30:58.485Z,42.25
2024-01-08T16:33:25.468Z,42.16
2024-01-08T16:35:52.761Z,42.14
2024-01-08T16:38:20.167Z,42.37
2024-01-08T16:40:48.121Z,41.99
2024-01-08T16:43:15.802Z,42.16
2024-01-08T16:45:42.612Z,42.25
2024-01-08T16:48:09.462Z,42.32
2024-01-08T16:50:36.599Z,42.27
2024-01-08T16:53:04.420Z,42.26
2024-01-08T16:55:31.282Z,42.15
2024-01-08T16:57:58.153Z,42.24
2024-01-08T17:00:24.951Z,42.16
2024-01-08T17:02:51.828Z,42.23
2024-01-08T17:05:19.821Z,41.99
2024-01-08T17:07:46.623Z,42.23
2024-01-08T17:10:13.583Z,42.21
2024-01-08T17:12:40.249Z,42.07
2024-01-08T17:15:07.516Z,42.17
2024-01-08T17:17:35.495Z,42.16
2024-01-08T17:20:05.358Z,42.06
2024-01-08T17:22:32.512Z,42.19
2024-01-08T17:25:03.408Z,42.09
2024-01-08T17:27:30.986Z,42.18
2024-01-08T17:29:58.280Z,42.01
2024-01-08T17:32:25.343Z,41.96
2024-01-08T17:34:52.268Z,42.06
2024-01-08T17:37:19.925Z,42.17
2024-01-08T17:39:47.629Z,41.74
2024-01-08T17:42:15.120Z,41.96
2024-01-08T17:44:43.383Z,41.81
2024-01-08T17:47:10.604Z,41.68
2024-01-08T17:49:38.841Z,41.91
2024-01-08T17:52:06.721Z,41.58
2024-01-08T17:54:34.700Z,41.39
2024-01-08T17:57:01.903Z,41.47
2024-01-08T17:59:29.530Z,41.31
2024-01-08T18:01:56.393Z,41.41
2024-01-08T18:04:23.497Z,41.31
2024-01-08T18:06:50.624Z,41.02
2024-01-08T18:09:17.628Z,41.29
2024-01-08T18:11:45.723Z,41.20
2024-01-08T18:14:15.991Z,41.17
2024-01-08T18:16:44.939Z,40.97
2024-01-08T18:19:12.099Z,41.09
2024-01-08T18:21:42.383Z,40.90
2024-01-08T18:24:20.203Z,41.14
2024-01-08T18:26:54.798Z,41.08
2024-01-08T18:29:21.689Z,41.08
2024-01-08T18:31:48.621Z,40.76
2024-01-08T18:34:16.694Z,40.87
2024-01-08T18:36:44.173Z,40.83
2024-01-08T18:39:13.202Z,40.65
2024-01-08T18:41:40.463Z,40.79
2024-01-08T18:44:07.403Z,40.55
2024-01-08T18:46:34.306Z,40.61
2024-01-08T18:49:01.202Z,40.39
2024-01-08T18:51:28.449Z,40.38
2024-01-08T18:53:56.028Z,40.40
2024-01-08T18:56:22.956Z,40.49
2024-01-08T18:58:49.720Z,40.28
2024-01-08T19:01:17.629Z,40.33
2024-01-08T19:03:44.530Z,40.06
2024-01-08T19:06:11.593Z,40.42
2024-01-08T19:08:39.623Z,40.11
2024-01-08T19:11:06.568Z,40.25
2024-01-08T19:13:37.446Z,40.12
2024-01-08T19:16:06.392Z,39.93
2024-01-08T19:18:38.861Z,40.08
2024-01-08T19:21:06.337Z,40.04
2024-01-08T19:23:33.220Z,39.97
2024-01-08T19:26:01.505Z,39.86
2024-01-08T19:28:28.457Z,39.88
2024-01-08T19:30:56.114Z,39.69
2024-01-08T19:33:23.185Z,39.84
2024-01-08T19:35:50.231Z,39.71
2024-01-08T19:38:17.142Z,39.87
2024-01-08T19:40:43.905Z,39.67
2024-01-08T19:43:10.749Z,39.79
2024-01-08T19:45:37.773Z,39.67
2024-01-08T19:48:05.010Z,39.72
2024-01-08T19:50:31.899Z,39.77
2024-01-08T19:52:58.640Z,39.86
2024-01-08T19:55:25.330Z,39.62
2024-01-08T19:57:52.167Z,39.81
2024-01-08T20:00:19.170Z,39.64
2024-01-08T20:02:45.985Z,39.68
2024-01-08T20:05:12.974Z,39.57
2024-01-08T20:07:40.048Z,39.49
2024-01-08T20:10:07.248Z,40.05
2024-01-08T20:12:33.996Z,39.69
2024-01-08T20:15:00.793Z,39.86
2024-01-08T20:17:27.664Z,39.52
2024-01-08T20:19:57.748Z,39.70
2024-01-08T20:22:25.024Z,39.64
2024-01-08T20:24:52.363Z,39.82
2024-01-08T20:27:19.245Z,39.81
2024-01-08T20:29:46.849Z,39.88
2024-01-08T20:32:13.652Z,39.74
2024-01-08T20:34:40.422Z,39.76
2024-01-08T20:37:07.231Z,39.88
2024-01-08T20:39:34.089Z,39.92
2024-01-08T20:42:01.066Z,40.06
2024-01-08T20:44:28.844Z,40.00
2024-01-08T20:46:55.610Z,40.01
2024-01-08T20:49:27.867Z,39.94
2024-01-08T20:51:55.772Z,39.94
2024-01-08T20:54:23.174Z,40.18
2024-01-08T20:56:50.468Z,40.10
2024-01-08T20:59:17.453Z,39.89
2024-01-08T21:01:44.308Z,39.81
2024-01-08T21:04:11.276Z,39.86
2024-01-08T21:06:38.357Z,40.00
2024-01-08T21:09:06.088Z,40.18
2024-01-08T21:11:33.455Z,39.86
2024-01-08T21:14:00.254Z,40.08
2024-01-08T21:16:27.144Z,39.88
2024-01-08T21:18:55.300Z,39.97
2024-01-08T21:21:22.273Z,40.06
2024-01-08T21:23:49.142Z,40.01
2024-01-08T21:26:16.270Z,39.88
2024-01-08T21:28:43.544Z,40.25
2024-01-08T21:31:13.500Z,39.91
2024-01-08T21:33:42.105Z,40.05
2024-01-08T21:36:10.797Z,39.92
2024-01-08T21:38:41.245Z,40.11
2024-01-08T21:41:08.081Z,39.94
2024-01-08T21:43:35.362Z,39.71
2024-01-08T21:46:03.397Z,40.13
2024-01-08T21:48:31.505Z,40.21
2024-01-08T21:50:58.264Z,39.95
2024-01-08T21:53:25.273Z,39.98
2024-01-08T21:55:51.995Z,39.88
2024-01-08T21:58:18.824Z,39.95
2024-01-08T22:00:45.609Z,39.69
2024-01-08T22:03:12.460Z,39.71
2024-01-08T22:05:39.368Z,39.76
2024-01-08T22:08:06.303Z,39.75
2024-01-08T22:10:33.120Z,39.67
2024-01-08T22:12:59.894Z,39.74
2024-01-08T22:15:26.634Z,39.58
2024-01-08T22:17:53.402Z,39.97
2024-01-08T22:20:20.349Z,39.66
2024-01-08T22:22:48.156Z,39.63
2024-01-08T22:25:15.288Z,39.76
2024-01-08T22:27:42.899Z,39.77
2024-01-08T22:30:10.924Z,39.72
2024-01-08T22:32:38.080Z,39.60
2024-01-08T22:35:05.229Z,39.40
2024-01-08T22:37:32.416Z,39.72
2024-01-08T22:40:00.076Z,39.77
2024-01-08T22:42:29.880Z,39.83
2024-01-08T22:44:57.352Z,39.78
2024-01-08T22:47:24.370Z,39.90
2024-01-08T22:49:52.101Z,39.81
2024-01-08T22:52:19.090Z,39.97
2024-01-08T22:54:45.826Z,40.10
2024-01-08T22:57:12.666Z,39.99
2024-01-08T22:59:42.019Z,40.44
2024-01-08T23:02:08.935Z,40.44
2024-01-08T23:04:35.708Z,40.47
2024-01-08T23:07:02.548Z,40.52
2024-01-08T23:09:29.453Z,40.46
2024-01-08T23:11:56.399Z,40.33
2024-01-08T23:14:23.834Z,40.65
2024-01-08T23:16:51.419Z,40.67
2024-01-08T23:19:18.890Z,40.79
2024-01-08T23:21:45.692Z,40.68
2024-01-08T23:24:12.861Z,40.93
2024-01-08T23:26:44.264Z,40.64
2024-01-08T23:29:11.673Z,40.68
2024-01-08T23:31:38.524Z,40.80
2024-01-08T23:34:14.311Z,40.76
2024-01-08T23:36:47.405Z,40.64
2024-01-08T23:39:14.315Z,40.70
2024-01-08T23:41:41.169Z,40.81
2024-01-08T23:44:09.827Z,40.84
2024-01-08T23:46:37.620Z,40.69
2024-01-08T23:49:04.483Z,41.18
2024-01-08T23:51:31.335Z,41.08
2024-01-08T23:53:58.084Z,40.79
2024-01-08T23:56:24.894Z,40.90
2024-01-08T23:58:51.678Z,40.97
